Time;durP1;ratioP1;P1;durP2;ratioP2;P2;SDS_P1;SDS_P2;PMS_P1;PMS_P2;Temp;Humidity;BMP_temperature;BMP_pressure;BME280_temperature;BME280_humidity;BME280_pressure;Samples;Min_cycle;Max_cycle;Signal;HPM_P1;HPM_P2
2023/10/05 00:02:56;;;;;;;11.43;5.60;;;12.90;99.90;;;;;;4973771;28;20538;-72
2023/10/05 00:05:22;;;;;;;11.50;5.77;;;12.90;99.90;;;;;;4972389;28;20189;-71
2023/10/05 00:07:48;;;;;;;13.57;5.67;;;12.90;99.90;;;;;;4974172;28;20363;-73
2023/10/05 00:10:14;;;;;;;12.80;5.63;;;12.90;99.90;;;;;;4974002;28;20558;-72
2023/10/05 00:12:40;;;;;;;12.20;6.07;;;12.90;99.90;;;;;;4973326;28;20177;-74
2023/10/05 00:17:33;;;;;;;8.63;5.63;;;13.00;99.90;;;;;;4973792;28;20212;-72
2023/10/05 00:19:58;;;;;;;7.53;5.07;;;13.00;99.90;;;;;;4973949;28;20696;-72
2023/10/05 00:22:24;;;;;;;11.60;5.53;;;13.00;99.90;;;;;;4973484;28;20208;-74
2023/10/05 00:24:50;;;;;;;12.47;5.70;;;13.00;99.90;;;;;;4973816;28;20209;-72
2023/10/05 00:27:15;;;;;;;10.33;5.60;;;13.00;99.90;;;;;;4973477;28;20620;-72
2023/10/05 00:29:41;;;;;;;9.93;6.17;;;13.00;99.90;;;;;;4973503;28;20259;-73
2023/10/05 00:32:23;;;;;;;9.53;5.27;;;13.10;99.90;;;;;;4971517;28;20201;-73
2023/10/05 00:35:14;;;;;;;12.60;5.50;;;13.10;99.90;;;;;;4973658;28;20173;-74
2023/10/05 00:37:35;;;;;;;9.30;4.83;;;13.10;99.90;;;;;;4973294;28;20255;-73
2023/10/05 00:40:02;;;;;;;10.03;5.47;;;13.20;99.90;;;;;;4973343;28;20189;-72
2023/10/05 00:42:28;;;;;;;9.20;5.20;;;13.20;99.90;;;;;;4972779;28;20173;-73
2023/10/05 00:44:54;;;;;;;9.90;4.70;;;13.20;99.90;;;;;;4972003;28;20185;-71
2023/10/05 00:47:21;;;;;;;14.60;5.27;;;13.20;99.90;;;;;;4973048;28;20607;-73
2023/10/05 00:49:53;;;;;;;11.53;5.20;;;13.30;99.90;;;;;;4972111;28;20577;-73
2023/10/05 00:52:25;;;;;;;11.57;5.67;;;13.30;99.90;;;;;;4972965;28;20681;-76
2023/10/05 00:54:54;;;;;;;10.13;5.27;;;13.30;99.90;;;;;;4973011;28;20692;-74
2023/10/05 00:57:22;;;;;;;8.57;4.30;;;13.30;99.90;;;;;;4972506;28;20206;-73
2023/10/05 01:00:10;;;;;;;14.33;5.77;;;13.30;99.90;;;;;;4973070;28;20593;-73
2023/10/05 01:02:39;;;;;;;15.70;5.00;;;13.30;99.90;;;;;;4972573;28;20196;-73
2023/10/05 01:05:25;;;;;;;15.13;5.20;;;13.40;99.90;;;;;;4972888;28;20170;-73
2023/10/05 01:07:56;;;;;;;12.17;5.27;;;13.40;99.90;;;;;;4973084;28;20591;-74
2023/10/05 01:10:29;;;;;;;11.73;4.77;;;13.40;99.90;;;;;;4972438;28;20739;-74
2023/10/05 01:12:56;;;;;;;10.07;4.80;;;13.40;99.90;;;;;;4972295;28;20173;-74
2023/10/05 01:15:24;;;;;;;14.73;4.83;;;13.40;99.90;;;;;;4972782;28;20170;-74
2023/10/05 01:17:51;;;;;;;11.27;5.00;;;13.40;99.90;;;;;;4972846;28;20399;-72
2023/10/05 01:22:46;;;;;;;11.90;4.97;;;13.40;99.90;;;;;;4972599;28;20173;-73
2023/10/05 01:25:14;;;;;;;9.27;4.73;;;13.50;99.90;;;;;;4972610;28;20283;-74
2023/10/05 01:27:42;;;;;;;8.30;4.73;;;13.50;99.90;;;;;;4972548;28;20273;-73
2023/10/05 01:30:10;;;;;;;9.10;4.77;;;13.50;99.90;;;;;;4973226;28;20216;-74
2023/10/05 01:32:37;;;;;;;8.90;4.60;;;13.50;99.90;;;;;;4972577;28;20252;-72
2023/10/05 01:35:07;;;;;;;9.97;4.87;;;13.50;99.90;;;;;;4972505;28;20737;-72
2023/10/05 01:37:35;;;;;;;10.73;5.10;;;13.50;99.90;;;;;;4972472;28;20204;-71
2023/10/05 01:40:01;;;;;;;6.73;4.80;;;13.50;99.90;;;;;;4972123;28;20717;-74
2023/10/05 01:42:30;;;;;;;9.00;5.30;;;13.50;99.90;;;;;;4971144;28;20173;-72
2023/10/05 01:44:55;;;;;;;7.37;4.67;;;13.50;99.90;;;;;;4972062;28;20296;-71
2023/10/05 01:47:22;;;;;;;10.57;5.27;;;13.60;99.90;;;;;;4972371;28;20653;-73
2023/10/05 01:49:50;;;;;;;8.03;5.13;;;13.50;99.90;;;;;;4972522;28;20197;-73
2023/10/05 01:52:20;;;;;;;11.27;4.70;;;13.60;99.90;;;;;;4972221;28;20576;-73
2023/10/05 01:54:46;;;;;;;11.20;4.93;;;13.50;99.90;;;;;;4972594;28;20174;-73
2023/10/05 01:57:16;;;;;;;7.00;4.93;;;13.60;99.90;;;;;;4972201;28;20549;-71
2023/10/05 01:59:42;;;;;;;5.97;4.80;;;13.50;99.90;;;;;;4972429;28;20267;-72
2023/10/05 02:02:11;;;;;;;17.20;5.27;;;13.50;99.90;;;;;;4972363;28;20180;-71
2023/10/05 02:04:43;;;;;;;12.67;4.33;;;13.50;99.90;;;;;;4972446;28;20177;-73
2023/10/05 02:07:10;;;;;;;10.07;4.93;;;13.50;99.90;;;;;;4972209;28;20181;-74
2023/10/05 02:09:38;;;;;;;9.13;4.80;;;13.50;99.90;;;;;;4972324;28;20633;-72
2023/10/05 02:12:06;;;;;;;10.13;4.70;;;13.50;99.90;;;;;;4971729;28;20518;-72
2023/10/05 02:14:41;;;;;;;10.27;5.17;;;13.50;99.90;;;;;;4972486;28;20241;-74
2023/10/05 02:17:10;;;;;;;9.57;5.00;;;13.50;99.90;;;;;;4971762;28;20189;-73
2023/10/05 02:19:38;;;;;;;8.37;4.37;;;13.50;99.90;;;;;;4972518;28;20681;-74
2023/10/05 02:22:11;;;;;;;9.70;4.93;;;13.40;99.90;;;;;;4972125;28;20174;-72
2023/10/05 02:24:40;;;;;;;7.93;4.47;;;13.50;99.90;;;;;;4976252;28;20589;-73
2023/10/05 02:27:14;;;;;;;12.00;5.07;;;13.40;99.90;;;;;;4975658;28;20261;-74
2023/10/05 02:29:42;;;;;;;10.17;5.20;;;13.40;99.90;;;;;;4975980;28;20215;-72
2023/10/05 02:32:11;;;;;;;8.30;5.17;;;13.40;99.90;;;;;;4975634;28;20170;-75
2023/10/05 02:37:24;;;;;;;12.73;4.90;;;13.50;99.90;;;;;;4975926;28;20690;-73
2023/10/05 02:39:50;;;;;;;8.43;4.47;;;13.50;99.90;;;;;;4975674;28;20251;-72
2023/10/05 02:42:21;;;;;;;9.10;5.10;;;13.50;99.90;;;;;;4974321;28;20213;-72
2023/10/05 02:44:47;;;;;;;8.77;4.80;;;13.50;99.90;;;;;;4975928;28;20591;-71
2023/10/05 02:47:14;;;;;;;9.30;4.33;;;13.60;99.90;;;;;;4975258;28;20185;-73
2023/10/05 02:49:44;;;;;;;9.80;4.33;;;13.60;99.90;;;;;;4975369;28;20194;-71
2023/10/05 02:52:13;;;;;;;7.13;4.30;;;13.60;99.90;;;;;;4974908;28;20599;-73
2023/10/05 02:54:45;;;;;;;11.73;5.57;;;13.60;99.90;;;;;;4975642;28;20630;-72
2023/10/05 02:57:14;;;;;;;9.43;4.83;;;13.60;99.90;;;;;;4975320;28;20264;-72
2023/10/05 02:59:40;;;;;;;6.50;4.63;;;13.60;99.90;;;;;;4975436;28;20277;-72
2023/10/05 03:02:10;;;;;;;8.70;4.53;;;13.60;99.90;;;;;;4975020;28;20173;-72
2023/10/05 03:04:46;;;;;;;8.77;4.20;;;13.50;99.90;;;;;;4975531;28;20633;-72
2023/10/05 03:07:16;;;;;;;9.13;4.20;;;13.50;99.90;;;;;;4975130;28;20173;-73
2023/10/05 03:09:43;;;;;;;10.27;5.17;;;13.60;99.90;;;;;;4975304;28;20193;-71
2023/10/05 03:12:12;;;;;;;8.37;4.30;;;13.60;99.90;;;;;;4974927;28;20653;-72
2023/10/05 03:14:44;;;;;;;7.40;4.30;;;13.50;99.90;;;;;;4975228;28;20176;-72
2023/10/05 03:17:18;;;;;;;8.30;4.00;;;13.50;99.90;;;;;;4974375;28;20174;-73
2023/10/05 03:19:43;;;;;;;12.07;4.90;;;13.50;99.90;;;;;;4975392;28;20688;-73
2023/10/05 03:22:12;;;;;;;13.93;4.93;;;13.50;99.90;;;;;;4974722;28;20177;-72
2023/10/05 03:24:47;;;;;;;8.27;4.10;;;13.50;99.90;;;;;;4975023;28;20157;-73
2023/10/05 03:27:16;;;;;;;8.20;4.67;;;13.50;99.90;;;;;;4975209;28;20628;-73
2023/10/05 03:29:45;;;;;;;8.93;4.70;;;13.50;99.90;;;;;;4974940;28;20233;-73
2023/10/05 03:34:37;;;;;;;7.10;4.20;;;13.50;99.90;;;;;;4974760;28;20205;-73
2023/10/05 03:37:06;;;;;;;8.40;3.93;;;13.40;99.90;;;;;;4974627;28;20264;-72
2023/10/05 03:39:38;;;;;;;6.93;4.20;;;13.40;99.90;;;;;;4973402;28;20193;-73
2023/10/05 03:42:05;;;;;;;8.57;4.50;;;13.40;99.90;;;;;;4974665;28;20518;-71
2023/10/05 03:44:31;;;;;;;9.00;4.30;;;13.30;99.90;;;;;;4974760;28;20248;-71
2023/10/05 03:46:57;;;;;;;7.83;4.50;;;13.30;99.90;;;;;;4974214;28;20582;-72
2023/10/05 03:49:23;;;;;;;7.33;4.20;;;13.30;99.90;;;;;;4974590;28;20216;-73
2023/10/05 03:51:49;;;;;;;5.80;4.10;;;13.30;99.90;;;;;;4974537;28;20669;-73
2023/10/05 03:54:19;;;;;;;6.13;4.40;;;13.30;99.90;;;;;;4974551;28;20186;-72
2023/10/05 03:56:46;;;;;;;14.00;4.87;;;13.30;99.90;;;;;;4974284;28;20204;-72
2023/10/05 03:59:12;;;;;;;5.13;3.77;;;13.30;99.90;;;;;;4973987;28;20207;-74
2023/10/05 04:01:38;;;;;;;6.40;3.73;;;13.30;99.90;;;;;;4974291;28;20173;-73
2023/10/05 04:04:08;;;;;;;6.27;4.00;;;13.30;99.90;;;;;;4974078;28;20556;-73
2023/10/05 04:06:36;;;;;;;6.77;4.10;;;13.30;99.90;;;;;;4974111;28;20193;-73
2023/10/05 04:09:03;;;;;;;6.87;4.27;;;13.40;99.90;;;;;;4973921;28;20173;-72
2023/10/05 04:11:33;;;;;;;7.63;4.53;;;13.40;99.90;;;;;;4973720;28;20244;-73
2023/10/05 04:14:01;;;;;;;5.93;4.13;;;13.40;99.90;;;;;;4973883;28;20256;-72
2023/10/05 04:16:28;;;;;;;8.13;4.00;;;13.30;99.90;;;;;;4972964;28;20209;-71
2023/10/05 04:18:55;;;;;;;9.57;4.13;;;13.40;99.90;;;;;;4973855;28;20202;-71
2023/10/05 04:21:24;;;;;;;9.40;3.80;;;13.30;99.90;;;;;;4972286;28;20193;-73
2023/10/05 04:23:50;;;;;;;6.37;4.40;;;13.30;99.90;;;;;;4973726;28;20201;-72
2023/10/05 04:26:20;;;;;;;6.60;4.40;;;13.30;99.90;;;;;;4973790;28;20182;-70
2023/10/05 04:28:54;;;;;;;10.53;4.60;;;13.30;99.90;;;;;;4972624;28;20181;-71
2023/10/05 04:31:25;;;;;;;7.57;4.40;;;13.30;99.90;;;;;;4972351;28;20201;-70
2023/10/05 04:33:52;;;;;;;7.87;4.43;;;13.30;99.90;;;;;;4972458;28;20209;-71
2023/10/05 04:36:20;;;;;;;4.77;4.10;;;13.20;99.90;;;;;;4973931;28;20749;-73
2023/10/05 04:38:46;;;;;;;6.53;4.23;;;13.20;99.90;;;;;;4973569;28;20235;-72
2023/10/05 04:41:12;;;;;;;6.93;3.90;;;13.20;99.90;;;;;;4973183;28;20205;-71
2023/10/05 04:43:43;;;;;;;11.90;4.20;;;13.10;99.90;;;;;;4971826;28;20189;-72
2023/10/05 04:46:09;;;;;;;8.53;4.27;;;13.10;99.90;;;;;;4972682;28;20189;-71
2023/10/05 04:48:38;;;;;;;5.97;4.20;;;13.00;99.90;;;;;;4973514;28;20170;-71
2023/10/05 04:51:05;;;;;;;7.70;3.80;;;13.10;99.90;;;;;;4973277;28;20196;-72
2023/10/05 04:53:32;;;;;;;6.70;4.27;;;13.00;99.90;;;;;;4972800;28;20220;-71
2023/10/05 04:56:10;;;;;;;12.10;4.37;;;13.00;99.90;;;;;;4973307;28;20264;-71
2023/10/05 05:01:32;;;;;;;13.00;4.63;;;12.90;99.90;;;;;;4972931;28;20275;-71
2023/10/05 05:04:27;;;;;;;6.47;4.50;;;12.90;99.90;;;;;;4973119;28;20543;-72
2023/10/05 05:06:43;;;;;;;10.50;4.20;;;12.80;99.90;;;;;;4973147;28;20177;-71
2023/10/05 05:09:12;;;;;;;7.97;4.10;;;12.80;99.90;;;;;;4972862;28;20181;-73
2023/10/05 05:11:39;;;;;;;8.00;4.50;;;12.80;99.90;;;;;;4973159;28;20170;-72
2023/10/05 05:14:07;;;;;;;8.30;4.43;;;12.80;99.90;;;;;;4972993;28;20182;-74
2023/10/05 05:16:33;;;;;;;7.57;4.40;;;12.80;99.90;;;;;;4972752;28;20173;-73
2023/10/05 05:18:59;;;;;;;12.07;4.40;;;12.80;99.90;;;;;;4972851;28;20212;-72
2023/10/05 05:21:25;;;;;;;9.53;4.10;;;12.80;99.90;;;;;;4972590;28;20613;-73
2023/10/05 05:23:50;;;;;;;5.77;4.03;;;12.80;99.90;;;;;;4972792;28;20297;-72
2023/10/05 05:26:16;;;;;;;7.53;3.90;;;12.80;99.90;;;;;;4972814;28;20248;-72
2023/10/05 05:28:43;;;;;;;4.23;3.83;;;12.80;99.90;;;;;;4972990;28;20251;-73
2023/10/05 05:31:16;;;;;;;5.97;3.83;;;12.80;99.90;;;;;;4972651;28;20201;-73
2023/10/05 05:33:44;;;;;;;8.27;4.13;;;12.80;99.90;;;;;;4972643;28;20618;-71
2023/10/05 05:36:11;;;;;;;11.17;4.30;;;12.80;99.90;;;;;;4972797;28;20208;-72
2023/10/05 05:38:38;;;;;;;5.93;3.83;;;12.80;99.90;;;;;;4972884;28;20201;-72
2023/10/05 05:41:11;;;;;;;6.90;4.07;;;12.80;99.90;;;;;;4972500;28;20239;-73
2023/10/05 05:43:39;;;;;;;9.70;4.63;;;12.80;99.90;;;;;;4971985;28;20177;-72
2023/10/05 05:46:10;;;;;;;8.77;3.93;;;12.90;99.90;;;;;;4972748;28;20197;-72
2023/10/05 05:48:36;;;;;;;4.77;3.80;;;12.90;99.90;;;;;;4972554;28;20227;-73
2023/10/05 05:51:10;;;;;;;11.53;3.97;;;13.00;99.90;;;;;;4971814;28;20280;-72
2023/10/05 05:53:37;;;;;;;7.53;4.20;;;13.00;99.90;;;;;;4972470;28;20179;-72
2023/10/05 05:56:03;;;;;;;9.27;4.87;;;13.00;99.90;;;;;;4972340;28;20193;-73
2023/10/05 05:58:29;;;;;;;8.43;4.17;;;13.10;99.90;;;;;;4976062;28;20213;-73
2023/10/05 06:00:56;;;;;;;5.10;3.90;;;13.20;99.90;;;;;;4976344;28;20201;-72
2023/10/05 06:03:24;;;;;;;8.43;4.27;;;13.20;99.90;;;;;;4976041;28;20165;-73
2023/10/05 06:05:50;;;;;;;6.97;4.40;;;13.20;99.90;;;;;;4975097;28;20552;-72
2023/10/05 06:08:19;;;;;;;7.80;4.07;;;13.30;99.90;;;;;;4976592;28;20616;-72
2023/10/05 06:10:46;;;;;;;5.83;4.13;;;13.30;99.90;;;;;;4976138;28;20715;-72
2023/10/05 06:13:13;;;;;;;10.17;4.47;;;13.40;99.90;;;;;;4975474;28;20185;-72
2023/10/05 06:15:39;;;;;;;11.17;4.27;;;13.40;99.90;;;;;;4974826;28;20228;-73
2023/10/05 06:18:05;;;;;;;10.77;4.17;;;13.40;99.90;;;;;;4975856;28;20201;-73
2023/10/05 06:20:31;;;;;;;7.20;4.20;;;13.40;99.90;;;;;;4975810;28;20201;-72
2023/10/05 06:22:58;;;;;;;6.43;4.23;;;13.50;99.90;;;;;;4975400;28;20224;-72
2023/10/05 06:25:25;;;;;;;11.43;4.33;;;13.50;99.90;;;;;;4975835;28;20663;-72
2023/10/05 06:27:51;;;;;;;6.97;3.87;;;13.60;99.90;;;;;;4975748;28;20177;-73
2023/10/05 06:30:17;;;;;;;7.90;4.13;;;13.60;99.90;;;;;;4975673;28;20196;-73
2023/10/05 06:32:46;;;;;;;9.43;3.90;;;13.70;99.90;;;;;;4975572;28;20212;-72
2023/10/05 06:35:11;;;;;;;9.53;4.50;;;13.70;99.90;;;;;;4975523;28;20177;-71
2023/10/05 06:37:41;;;;;;;6.07;3.83;;;13.80;99.90;;;;;;4975633;28;20208;-72
2023/10/05 06:40:15;;;;;;;10.33;4.63;;;13.80;99.90;;;;;;4976517;28;20193;-72
2023/10/05 06:42:41;;;;;;;15.63;4.70;;;13.90;99.90;;;;;;4975072;28;20236;-71
2023/10/05 06:45:11;;;;;;;9.00;4.07;;;13.90;99.90;;;;;;4975401;28;20590;-72
2023/10/05 06:47:38;;;;;;;9.67;4.70;;;14.00;99.90;;;;;;4975163;28;20185;-71
2023/10/05 06:50:08;;;;;;;8.80;3.97;;;14.00;99.90;;;;;;4975027;28;20200;-71
2023/10/05 06:52:36;;;;;;;9.87;4.10;;;14.00;99.90;;;;;;4975143;28;20638;-73
2023/10/05 06:55:07;;;;;;;9.93;4.27;;;14.10;99.90;;;;;;4975186;28;20174;-72
2023/10/05 06:57:39;;;;;;;6.90;4.10;;;14.00;99.90;;;;;;4974898;28;20200;-73
2023/10/05 07:00:15;;;;;;;15.27;5.33;;;14.10;99.90;;;;;;4975423;28;20696;-73
2023/10/05 07:02:41;;;;;;;17.30;4.67;;;14.10;99.90;;;;;;4975090;28;20641;-73
2023/10/05 07:05:08;;;;;;;8.47;4.83;;;14.20;99.90;;;;;;4974995;28;20169;-73
2023/10/05 07:07:35;;;;;;;13.57;4.07;;;14.20;99.90;;;;;;4974880;28;20178;-72
2023/10/05 07:10:13;;;;;;;7.43;4.47;;;14.20;99.90;;;;;;4973879;28;20241;-72
2023/10/05 07:12:39;;;;;;;6.10;4.07;;;14.20;99.90;;;;;;4974832;28;20184;-72
2023/10/05 07:15:05;;;;;;;9.53;5.03;;;14.30;99.90;;;;;;4974842;28;20181;-72
2023/10/05 07:17:32;;;;;;;7.43;4.50;;;14.30;99.90;;;;;;4973387;28;20201;-72
2023/10/05 07:19:58;;;;;;;9.23;4.53;;;14.40;99.90;;;;;;4974708;28;20248;-72
2023/10/05 07:22:24;;;;;;;9.90;4.77;;;14.40;99.90;;;;;;4974791;28;20178;-73
2023/10/05 07:24:50;;;;;;;12.67;4.83;;;14.40;99.90;;;;;;4974387;28;20207;-72
2023/10/05 07:27:17;;;;;;;13.00;4.00;;;14.50;99.90;;;;;;4974314;28;20174;-72
2023/10/05 07:29:46;;;;;;;8.37;4.20;;;14.60;99.90;;;;;;4974615;28;20684;-72
2023/10/05 07:32:14;;;;;;;7.97;4.00;;;14.60;99.90;;;;;;4972914;28;20180;-72
2023/10/05 07:34:41;;;;;;;5.13;3.73;;;14.70;99.90;;;;;;4974414;28;20182;-73
2023/10/05 07:37:10;;;;;;;11.83;4.30;;;14.70;99.90;;;;;;4973222;28;20232;-72
2023/10/05 07:39:40;;;;;;;6.33;3.90;;;14.70;99.90;;;;;;4974220;28;20233;-73
2023/10/05 07:42:09;;;;;;;7.73;3.20;;;14.80;99.90;;;;;;4974331;28;20192;-73
2023/10/05 07:44:37;;;;;;;5.40;4.20;;;14.90;99.90;;;;;;4974190;28;20176;-72
2023/10/05 07:47:06;;;;;;;10.03;4.10;;;14.90;99.90;;;;;;4974264;28;20185;-72
2023/10/05 07:49:35;;;;;;;7.17;4.70;;;14.90;99.90;;;;;;4973010;28;20197;-72
2023/10/05 07:52:03;;;;;;;10.63;4.43;;;15.00;99.90;;;;;;4973875;28;20187;-72
2023/10/05 07:54:31;;;;;;;11.80;4.50;;;15.10;99.90;;;;;;4972775;28;20181;-72
2023/10/05 07:56:57;;;;;;;7.03;3.67;;;15.10;99.90;;;;;;4974030;28;20260;-74
2023/10/05 07:59:23;;;;;;;5.37;3.97;;;15.10;99.90;;;;;;4973746;28;20633;-73
2023/10/05 08:01:52;;;;;;;17.37;5.17;;;15.20;99.90;;;;;;4973805;28;20174;-74
2023/10/05 08:04:18;;;;;;;9.00;3.90;;;15.30;99.90;;;;;;4973108;28;20638;-73
2023/10/05 08:06:45;;;;;;;6.67;3.70;;;15.40;99.90;;;;;;4973805;28;20278;-74
2023/10/05 08:09:15;;;;;;;7.17;4.00;;;15.50;99.90;;;;;;4972481;28;20177;-75
2023/10/05 08:11:44;;;;;;;7.87;3.93;;;15.70;99.90;;;;;;4973659;28;20543;-74
2023/10/05 08:14:13;;;;;;;6.23;3.80;;;15.80;99.90;;;;;;4973759;28;20178;-75
2023/10/05 08:16:39;;;;;;;8.57;4.07;;;16.00;99.90;;;;;;4973675;28;20305;-74
2023/10/05 08:19:05;;;;;;;4.97;3.50;;;16.20;99.90;;;;;;4973475;28;20297;-72
2023/10/05 08:21:32;;;;;;;5.47;3.27;;;16.30;99.90;;;;;;4972568;28;20177;-71
2023/10/05 08:23:57;;;;;;;4.77;3.30;;;16.40;99.90;;;;;;4973497;28;20626;-73
2023/10/05 08:26:24;;;;;;;12.67;3.90;;;16.60;99.90;;;;;;4973856;28;20181;-72
2023/10/05 08:28:50;;;;;;;5.67;3.73;;;16.80;99.90;;;;;;4973726;28;20177;-72
2023/10/05 08:31:23;;;;;;;6.97;3.30;;;17.10;99.90;;;;;;4973161;28;20252;-73
2023/10/05 08:33:54;;;;;;;10.17;3.60;;;17.40;99.90;;;;;;4973452;28;20285;-73
2023/10/05 08:36:25;;;;;;;5.47;3.50;;;17.60;99.90;;;;;;4954590;28;20177;-72
2023/10/05 08:38:54;;;;;;;7.10;3.90;;;17.80;99.90;;;;;;4954395;28;20256;-72
2023/10/05 08:41:25;;;;;;;4.93;3.47;;;18.10;99.90;;;;;;4954188;28;20216;-74
2023/10/05 08:43:53;;;;;;;6.73;3.20;;;18.20;99.90;;;;;;4954294;28;20174;-74
2023/10/05 08:46:20;;;;;;;8.13;3.50;;;18.40;99.90;;;;;;4954302;28;20241;-72
2023/10/05 08:48:46;;;;;;;4.47;3.43;;;18.50;99.90;;;;;;4955518;28;20178;-72
2023/10/05 08:51:13;;;;;;;10.77;3.50;;;18.50;99.90;;;;;;4973010;28;20204;-73
2023/10/05 08:53:48;;;;;;;6.03;3.67;;;18.50;99.90;;;;;;4972911;28;20173;-75
2023/10/05 08:56:15;;;;;;;8.27;3.07;;;18.20;99.90;;;;;;4973275;28;20184;-73
2023/10/05 08:58:46;;;;;;;9.23;3.30;;;18.10;99.90;;;;;;4973240;28;20233;-73
2023/10/05 09:01:25;;;;;;;8.43;3.47;;;17.90;99.90;;;;;;4953550;28;20191;-73
2023/10/05 09:04:04;;;;;;;5.73;3.50;;;17.90;99.90;;;;;;4953833;28;20178;-74
2023/10/05 09:06:30;;;;;;;15.20;3.53;;;17.90;99.90;;;;;;4954864;28;20185;-74
2023/10/05 09:11:32;;;;;;;4.67;3.43;;;17.90;99.90;;;;;;4972978;28;20260;-70
2023/10/05 09:14:27;;;;;;;4.30;3.50;;;17.70;99.90;;;;;;4972553;28;20180;-71
2023/10/05 09:17:05;;;;;;;5.87;3.00;;;17.60;99.90;;;;;;4972894;28;20174;-72
2023/10/05 09:19:33;;;;;;;8.17;3.50;;;17.50;99.90;;;;;;4972729;28;20706;-72
2023/10/05 09:24:25;;;;;;;6.20;3.47;;;17.50;99.90;;;;;;4972843;28;20701;-72
2023/10/05 09:27:12;;;;;;;9.50;3.60;;;17.50;99.90;;;;;;4972506;28;20176;-73
2023/10/05 09:29:39;;;;;;;6.83;3.87;;;17.50;99.90;;;;;;4972752;28;20200;-74
2023/10/05 09:32:11;;;;;;;4.73;3.27;;;17.50;99.90;;;;;;4970781;28;20244;-73
2023/10/05 09:34:38;;;;;;;5.00;3.57;;;17.50;99.90;;;;;;4972816;28;20650;-73
2023/10/05 09:37:05;;;;;;;6.97;3.27;;;17.50;99.90;;;;;;4972589;28;20253;-73
2023/10/05 09:39:49;;;;;;;9.33;3.43;;;17.50;99.90;;;;;;4972565;28;20260;-74
2023/10/05 09:42:24;;;;;;;9.47;3.20;;;17.50;99.90;;;;;;4971895;28;20244;-73
2023/10/05 09:44:52;;;;;;;8.33;3.20;;;17.50;99.90;;;;;;4972154;28;20596;-74
2023/10/05 09:47:32;;;;;;;9.53;3.00;;;17.40;99.90;;;;;;4972530;28;20225;-73
2023/10/05 09:50:03;;;;;;;6.60;3.17;;;17.40;99.90;;;;;;4953152;28;20628;-72
2023/10/05 09:52:35;;;;;;;9.63;3.47;;;17.40;99.90;;;;;;4952975;28;20663;-71
2023/10/05 09:55:03;;;;;;;10.20;3.20;;;17.50;99.90;;;;;;4953110;28;20201;-72
2023/10/05 09:57:40;;;;;;;7.13;2.93;;;17.40;99.90;;;;;;4953129;28;20179;-74
2023/10/05 10:00:11;;;;;;;8.87;3.67;;;17.30;99.90;;;;;;4953216;28;20197;-72
2023/10/05 10:02:39;;;;;;;10.33;3.37;;;17.30;99.90;;;;;;4971826;28;20178;-74
2023/10/05 10:05:26;;;;;;;7.10;3.67;;;17.40;99.90;;;;;;4972471;28;20533;-74
2023/10/05 10:07:55;;;;;;;7.87;3.80;;;17.40;99.90;;;;;;4972154;28;20190;-74
2023/10/05 10:10:22;;;;;;;10.67;3.80;;;17.40;99.90;;;;;;4972375;28;20244;-73
2023/10/05 10:12:51;;;;;;;19.33;4.37;;;17.50;99.90;;;;;;4972236;28;20280;-75
2023/10/05 10:15:34;;;;;;;18.53;4.30;;;17.60;99.90;;;;;;4971844;28;20173;-74
2023/10/05 10:18:14;;;;;;;9.73;3.33;;;17.60;99.90;;;;;;4952888;28;20214;-74
2023/10/05 10:20:47;;;;;;;8.17;3.10;;;17.60;99.90;;;;;;4971100;28;20209;-72
2023/10/05 10:23:35;;;;;;;7.50;3.27;;;17.60;99.90;;;;;;4972086;28;20583;-74
2023/10/05 10:26:16;;;;;;;8.23;3.70;;;17.60;99.90;;;;;;4970288;28;20178;-73
2023/10/05 10:31:18;;;;;;;9.73;3.50;;;17.70;99.90;;;;;;4971947;28;20203;-73
2023/10/05 10:33:50;;;;;;;5.17;3.13;;;17.70;99.90;;;;;;4971123;28;20268;-74
2023/10/05 10:36:18;;;;;;;7.07;4.33;;;17.80;99.90;;;;;;4972206;28;20556;-74
2023/10/05 10:38:50;;;;;;;7.80;3.60;;;17.70;99.90;;;;;;4971794;28;20201;-72
2023/10/05 10:41:17;;;;;;;6.23;4.20;;;17.60;99.90;;;;;;4972094;28;20666;-71
2023/10/05 10:43:52;;;;;;;7.57;3.80;;;17.70;99.90;;;;;;4971147;28;20187;-71
2023/10/05 10:46:30;;;;;;;4.00;3.30;;;17.60;99.90;;;;;;4975602;28;20189;-73
2023/10/05 10:48:57;;;;;;;9.63;3.67;;;17.60;99.90;;;;;;4975764;28;20177;-73
2023/10/05 10:51:27;;;;;;;5.73;3.60;;;17.70;99.90;;;;;;4974202;28;20267;-73
2023/10/05 10:53:56;;;;;;;5.00;3.30;;;17.70;99.90;;;;;;4975360;28;20178;-72
2023/10/05 10:56:27;;;;;;;4.53;3.47;;;17.60;99.90;;;;;;4975590;28;20201;-75
2023/10/05 10:59:13;;;;;;;7.87;3.90;;;17.60;99.90;;;;;;4956124;28;20281;-73
2023/10/05 11:01:43;;;;;;;4.90;3.10;;;17.60;99.90;;;;;;4956163;28;20174;-72
2023/10/05 11:04:23;;;;;;;10.80;3.97;;;17.60;99.90;;;;;;4956180;28;20670;-73
2023/10/05 11:07:01;;;;;;;6.97;3.30;;;17.70;99.90;;;;;;4956152;28;20173;-72
2023/10/05 11:09:31;;;;;;;10.83;3.97;;;17.80;99.90;;;;;;4955967;28;20690;-73
2023/10/05 11:12:08;;;;;;;9.40;3.53;;;18.00;99.90;;;;;;4962235;28;20548;-72
2023/10/05 11:14:35;;;;;;;10.57;3.23;;;18.00;99.90;;;;;;4975025;28;20181;-72
2023/10/05 11:17:01;;;;;;;9.57;3.13;;;18.10;99.90;;;;;;4975100;28;20180;-73
2023/10/05 11:19:39;;;;;;;9.13;4.17;;;18.30;99.90;;;;;;4974972;28;20228;-74
2023/10/05 11:22:11;;;;;;;7.53;3.70;;;18.40;99.90;;;;;;4974922;28;20170;-72
2023/10/05 11:25:16;;;;;;;5.63;3.63;;;18.40;99.90;;;;;;4975147;28;20177;-73
2023/10/05 11:27:56;;;;;;;7.43;3.67;;;18.30;99.90;;;;;;4975002;28;20228;-74
2023/10/05 11:30:47;;;;;;;5.77;3.60;;;18.20;99.90;;;;;;4975277;28;20197;-72
2023/10/05 11:33:15;;;;;;;5.30;4.00;;;18.30;99.90;;;;;;4974730;28;20177;-74
2023/10/05 11:35:49;;;;;;;5.73;3.97;;;18.40;99.90;;;;;;4974772;28;20178;-73
2023/10/05 11:38:19;;;;;;;8.60;4.47;;;18.50;99.90;;;;;;4974867;28;20193;-74
2023/10/05 11:40:53;;;;;;;7.97;3.80;;;18.60;99.90;;;;;;4974559;28;20252;-71
2023/10/05 11:43:22;;;;;;;7.90;3.87;;;18.70;99.90;;;;;;4974148;28;20514;-72
2023/10/05 11:46:24;;;;;;;7.73;3.57;;;18.80;99.90;;;;;;4974316;28;20189;-71
2023/10/05 11:48:51;;;;;;;7.53;3.87;;;18.70;99.90;;;;;;4974509;28;20534;-73
2023/10/05 11:51:19;;;;;;;6.73;4.13;;;18.70;99.90;;;;;;4974460;28;20205;-73
2023/10/05 11:53:46;;;;;;;5.37;3.50;;;18.70;99.90;;;;;;4973848;28;20672;-73
2023/10/05 11:56:15;;;;;;;4.33;2.83;;;18.80;99.90;;;;;;4972801;28;20181;-73
2023/10/05 11:58:41;;;;;;;9.27;3.60;;;19.00;99.90;;;;;;4974259;28;20314;-73
2023/10/05 12:01:07;;;;;;;6.27;3.50;;;19.20;99.90;;;;;;4974040;28;20277;-73
2023/10/05 12:03:33;;;;;;;6.60;3.53;;;19.40;99.90;;;;;;4974023;28;20170;-75
2023/10/05 12:06:03;;;;;;;5.03;3.33;;;19.50;99.90;;;;;;4973293;28;20256;-73
2023/10/05 12:08:30;;;;;;;5.50;2.93;;;19.50;99.90;;;;;;4974058;28;20260;-74
2023/10/05 12:10:59;;;;;;;6.40;3.20;;;19.60;99.90;;;;;;4973608;28;20272;-74
2023/10/05 12:13:29;;;;;;;5.87;3.40;;;19.70;99.90;;;;;;4973696;28;20176;-74
2023/10/05 12:15:55;;;;;;;6.93;2.93;;;19.70;99.90;;;;;;4973775;28;20180;-74
2023/10/05 12:18:22;;;;;;;12.53;4.37;;;19.80;99.90;;;;;;4973822;28;20209;-73
2023/10/05 12:20:48;;;;;;;7.33;3.70;;;19.90;99.90;;;;;;4972171;28;20221;-74
2023/10/05 12:23:14;;;;;;;5.37;3.47;;;20.10;99.90;;;;;;4973223;28;20224;-75
2023/10/05 12:25:46;;;;;;;9.97;4.27;;;20.20;99.90;;;;;;4973869;28;20169;-74
2023/10/05 12:28:13;;;;;;;6.13;3.63;;;20.10;99.90;;;;;;4973608;28;20178;-73
2023/10/05 12:30:40;;;;;;;7.33;3.87;;;20.30;99.90;;;;;;4973685;28;20578;-73
2023/10/05 12:33:08;;;;;;;8.70;3.90;;;20.20;99.90;;;;;;4973088;28;20264;-72
2023/10/05 12:35:36;;;;;;;7.93;3.67;;;20.20;99.90;;;;;;4973629;28;20631;-71
2023/10/05 12:38:06;;;;;;;6.73;3.60;;;20.30;99.90;;;;;;4973245;28;20193;-72
2023/10/05 12:40:41;;;;;;;8.73;3.30;;;20.20;99.90;;;;;;4973678;28;20189;-72
2023/10/05 12:43:09;;;;;;;7.07;3.90;;;20.10;99.90;;;;;;4973862;28;20169;-75
2023/10/05 12:45:35;;;;;;;7.03;3.10;;;20.00;99.90;;;;;;4973693;28;20181;-72
2023/10/05 12:48:03;;;;;;;4.83;3.13;;;20.20;99.90;;;;;;4973369;28;20181;-73
2023/10/05 12:50:29;;;;;;;9.97;4.30;;;20.40;99.90;;;;;;4974067;28;20193;-71
2023/10/05 12:52:58;;;;;;;5.17;3.73;;;20.50;99.90;;;;;;4972966;28;20256;-71
2023/10/05 12:55:29;;;;;;;4.50;3.00;;;20.60;99.90;;;;;;4973106;28;20205;-72
2023/10/05 12:57:55;;;;;;;4.20;3.00;;;20.60;99.90;;;;;;4973022;28;20256;-71
2023/10/05 13:00:25;;;;;;;6.70;3.60;;;20.60;99.90;;;;;;4973105;28;20197;-73
2023/10/05 13:02:55;;;;;;;3.63;3.10;;;20.70;99.90;;;;;;4973003;28;20532;-72
2023/10/05 13:05:24;;;;;;;4.20;3.10;;;20.90;99.90;;;;;;4973511;28;20637;-73
2023/10/05 13:07:50;;;;;;;5.30;2.63;;;21.10;99.90;;;;;;4972479;28;20182;-72
2023/10/05 13:10:50;;;;;;;4.35;3.45;;;21.30;99.90;;;;;;4973081;28;20715;-71
2023/10/05 13:13:17;;;;;;;5.57;3.40;;;20.90;99.90;;;;;;4971470;28;20685;-72
2023/10/05 13:15:44;;;;;;;6.97;3.00;;;20.50;99.90;;;;;;4972852;28;20218;-72
2023/10/05 13:18:17;;;;;;;5.50;3.60;;;20.40;99.90;;;;;;4972675;28;20205;-72
2023/10/05 13:20:53;;;;;;;7.93;3.50;;;20.60;99.90;;;;;;4972886;28;20185;-74